createdAt,value
2022-07-27T00:02:35.851Z,8.68
2022-07-27T00:07:39.525Z,3.38
2022-07-27T00:12:44.836Z,3.90
2022-07-27T00:17:48.428Z,3.10
2022-07-27T00:22:52.082Z,4.50
2022-07-27T00:27:57.854Z,3.50
2022-07-27T00:33:01.508Z,3.75
2022-07-27T00:38:05.188Z,5.50
2022-07-27T00:43:10.366Z,4.32
2022-07-27T00:48:14.180Z,5.40
2022-07-27T00:53:18.004Z,4.25
2022-07-27T00:58:23.669Z,3.67
2022-07-27T01:03:29.815Z,2.60
2022-07-27T01:08:33.975Z,4.13
2022-07-27T01:13:39.452Z,3.08
2022-07-27T01:18:43.410Z,4.00
2022-07-27T01:23:48.399Z,4.03
2022-07-27T01:28:57.118Z,6.55
2022-07-27T01:34:01.521Z,10.68
2022-07-27T01:39:06.725Z,3.72
2022-07-27T01:44:10.971Z,5.47
2022-07-27T01:49:15.168Z,4.78
2022-07-27T01:54:20.539Z,4.13
2022-07-27T01:59:24.001Z,5.43
2022-07-27T02:04:27.553Z,2.58
2022-07-27T02:09:32.721Z,2.88
2022-07-27T02:14:36.363Z,3.60
2022-07-27T02:19:40.035Z,3.00
2022-07-27T02:24:45.186Z,4.43
2022-07-27T02:29:48.797Z,4.22
2022-07-27T02:34:52.851Z,3.35
2022-07-27T02:39:57.674Z,4.90
2022-07-27T02:45:01.339Z,5.03
2022-07-27T02:50:06.961Z,3.72
2022-07-27T02:55:12.294Z,4.03
2022-07-27T03:00:17.926Z,3.58
2022-07-27T03:05:21.545Z,4.72
2022-07-27T03:10:26.607Z,3.30
2022-07-27T03:15:30.730Z,2.20
2022-07-27T03:20:34.603Z,2.92
2022-07-27T03:25:39.618Z,2.75
2022-07-27T03:30:44.006Z,3.17
2022-07-27T03:35:47.644Z,3.10
2022-07-27T03:40:52.844Z,4.07
2022-07-27T03:45:56.645Z,3.28
2022-07-27T03:51:00.379Z,3.65
2022-07-27T03:56:06.443Z,5.50
2022-07-27T04:01:10.216Z,2.57
2022-07-27T04:06:13.852Z,8.68
2022-07-27T04:11:18.947Z,3.28
2022-07-27T04:16:22.918Z,6.28
2022-07-27T04:21:27.775Z,2.45
2022-07-27T04:26:38.716Z,4.07
2022-07-27T04:31:42.523Z,3.90
2022-07-27T04:36:46.020Z,6.20
2022-07-27T04:41:51.727Z,2.35
2022-07-27T04:46:55.415Z,3.00
2022-07-27T04:51:59.057Z,5.45
2022-07-27T04:57:03.953Z,4.70
2022-07-27T05:02:08.398Z,3.55
2022-07-27T05:07:12.155Z,3.08
2022-07-27T05:12:17.247Z,2.70
2022-07-27T05:17:20.984Z,4.95
2022-07-27T05:22:24.766Z,3.80
2022-07-27T05:27:29.977Z,5.82
2022-07-27T05:32:33.713Z,4.28
2022-07-27T05:37:37.461Z,2.63
2022-07-27T05:42:44.960Z,4.45
2022-07-27T05:47:48.594Z,4.00
2022-07-27T05:52:52.614Z,2.63
2022-07-27T05:57:57.682Z,1.77
2022-07-27T06:03:01.400Z,2.20
2022-07-27T06:08:08.890Z,1.40
2022-07-27T06:13:14.049Z,2.08
2022-07-27T06:18:18.572Z,2.38
2022-07-27T06:23:23.393Z,5.28
2022-07-27T06:28:28.551Z,4.07
2022-07-27T06:33:32.329Z,4.45
2022-07-27T06:38:36.320Z,2.05
2022-07-27T06:43:41.542Z,4.25
2022-07-27T06:48:46.616Z,3.73
2022-07-27T06:53:53.273Z,4.07
2022-07-27T06:58:58.320Z,3.53
2022-07-27T07:04:01.880Z,3.00
2022-07-27T07:09:06.230Z,3.45
2022-07-27T07:19:17.641Z,4.47
2022-07-27T07:24:21.317Z,6.00
2022-07-27T07:29:26.337Z,6.63
2022-07-27T07:34:30.497Z,4.63
2022-07-27T07:39:34.140Z,6.63
2022-07-27T07:44:39.691Z,5.97
2022-07-27T07:49:43.299Z,7.07
2022-07-27T07:54:46.881Z,3.50
2022-07-27T07:59:51.812Z,13.98
2022-07-27T08:04:55.638Z,12.70
2022-07-27T08:09:59.419Z,11.48
2022-07-27T08:15:05.228Z,14.93
2022-07-27T08:20:11.294Z,9.50
2022-07-27T08:25:15.067Z,8.15
2022-07-27T08:30:20.198Z,10.80
2022-07-27T08:35:24.494Z,11.40
2022-07-27T08:40:39.705Z,9.82
2022-07-27T08:50:51.467Z,5.20
2022-07-27T08:55:57.609Z,6.05
2022-07-27T09:01:02.563Z,6.00
2022-07-27T09:06:06.330Z,6.55
2022-07-27T09:11:19.963Z,8.65
2022-07-27T09:16:58.123Z,6.28
2022-07-27T09:21:56.000Z,10.18
2022-07-27T09:27:06.048Z,9.30
2022-07-27T09:32:17.868Z,8.23
2022-07-27T09:37:27.230Z,8.50
2022-07-27T09:43:06.773Z,8.40
2022-07-27T09:47:58.445Z,14.40
2022-07-27T09:53:41.221Z,23.58
2022-07-27T09:58:49.675Z,30.13
2022-07-27T10:03:58.706Z,38.97
2022-07-27T10:09:03.181Z,44.53
2022-07-27T10:14:07.586Z,45.08
2022-07-27T10:19:19.453Z,42.58
2022-07-27T10:24:31.554Z,36.60
2022-07-27T10:29:35.183Z,29.25
2022-07-27T10:34:43.988Z,29.65
2022-07-27T10:40:13.783Z,24.08
2022-07-27T10:45:19.840Z,19.88
2022-07-27T10:50:34.029Z,16.00
2022-07-27T10:55:52.303Z,14.80
2022-07-27T11:01:04.344Z,15.70
2022-07-27T11:11:40.184Z,11.40
2022-07-27T11:16:54.933Z,8.27
2022-07-27T11:22:04.695Z,7.80
2022-07-27T11:27:16.338Z,6.20
2022-07-27T11:32:21.560Z,7.40
2022-07-27T11:37:26.504Z,7.28
2022-07-27T11:42:39.313Z,6.07
2022-07-27T11:47:42.960Z,4.57
2022-07-27T11:53:01.617Z,4.97
2022-07-27T11:58:06.023Z,4.93
2022-07-27T12:03:21.295Z,4.53
2022-07-27T12:08:27.437Z,4.50
2022-07-27T12:13:34.711Z,4.80
2022-07-27T12:23:55.660Z,4.70
